createdAt,value
2019-05-25T00:02:48.420Z,11
2019-05-25T00:07:50.919Z,12
2019-05-25T00:12:53.338Z,11
2019-05-25T00:17:55.830Z,11
2019-05-25T00:22:58.284Z,12
2019-05-25T00:28:00.715Z,11
2019-05-25T00:33:03.560Z,11
2019-05-25T00:38:05.653Z,10
2019-05-25T00:43:08.076Z,10
2019-05-25T00:48:10.566Z,10
2019-05-25T00:53:12.987Z,11
2019-05-25T00:58:15.455Z,13
2019-05-25T01:03:17.938Z,12
2019-05-25T01:08:20.374Z,12
2019-05-25T01:13:22.826Z,11
2019-05-25T01:18:25.282Z,11
2019-05-25T01:23:27.742Z,12
2019-05-25T01:28:30.201Z,10
2019-05-25T01:33:32.653Z,12
2019-05-25T01:38:35.125Z,12
2019-05-25T01:43:37.573Z,13
2019-05-25T01:48:40.063Z,11
2019-05-25T01:53:42.495Z,12
2019-05-25T01:58:44.972Z,12
2019-05-25T02:03:47.430Z,12
2019-05-25T02:08:49.898Z,11
2019-05-25T02:13:52.351Z,12
2019-05-25T02:18:54.783Z,13
2019-05-25T02:23:57.250Z,11
2019-05-25T02:28:59.663Z,12
2019-05-25T02:34:02.155Z,13
2019-05-25T02:39:04.749Z,14
2019-05-25T02:44:07.213Z,13
2019-05-25T02:49:09.503Z,13
2019-05-25T02:54:11.994Z,12
2019-05-25T02:59:14.441Z,13
2019-05-25T03:04:16.946Z,12
2019-05-25T03:09:19.493Z,13
2019-05-25T03:14:21.807Z,13
2019-05-25T03:19:24.291Z,12
2019-05-25T03:24:26.735Z,12
2019-05-25T03:29:29.204Z,12
2019-05-25T03:34:31.650Z,12
2019-05-25T03:39:34.105Z,12
2019-05-25T03:44:36.573Z,14
2019-05-25T03:49:39.001Z,14
2019-05-25T03:54:41.508Z,13
2019-05-25T03:59:43.929Z,13
2019-05-25T04:04:46.402Z,15
2019-05-25T04:09:48.865Z,11
2019-05-25T04:14:51.302Z,11
2019-05-25T04:19:53.748Z,10
2019-05-25T04:24:56.255Z,11
2019-05-25T04:29:58.717Z,12
2019-05-25T04:35:01.285Z,11
2019-05-25T04:40:03.671Z,10
2019-05-25T04:45:06.161Z,11
2019-05-25T04:50:08.585Z,10
2019-05-25T04:55:11.061Z,10
2019-05-25T05:00:13.469Z,10
2019-05-25T05:05:15.915Z,8
2019-05-25T05:10:18.379Z,8
2019-05-25T05:15:20.827Z,9
2019-05-25T05:20:23.244Z,9
2019-05-25T05:25:25.714Z,9
2019-05-25T05:30:28.194Z,9
2019-05-25T05:35:30.614Z,8
2019-05-25T05:40:33.111Z,8
2019-05-25T05:45:35.544Z,8
2019-05-25T05:50:37.989Z,9
2019-05-25T05:55:40.506Z,8
2019-05-25T06:00:42.921Z,7
2019-05-25T06:05:45.368Z,8
2019-05-25T06:10:47.898Z,8
2019-05-25T06:15:50.396Z,8
2019-05-25T06:25:55.221Z,7
2019-05-25T06:30:57.667Z,8
2019-05-25T06:36:00.138Z,9
2019-05-25T06:41:02.605Z,11
2019-05-25T06:46:05.041Z,10
2019-05-25T06:51:07.502Z,11
2019-05-25T06:56:09.958Z,11
2019-05-25T07:01:12.427Z,12
2019-05-25T07:06:14.881Z,11
2019-05-25T07:11:17.344Z,13
2019-05-25T07:16:19.813Z,12
2019-05-25T07:21:22.307Z,12
2019-05-25T07:26:24.744Z,12
2019-05-25T07:31:27.184Z,12
2019-05-25T07:36:29.644Z,12
2019-05-25T07:41:32.122Z,13
2019-05-25T07:46:34.564Z,13
2019-05-25T07:51:37.076Z,12
2019-05-25T07:56:39.512Z,13
2019-05-25T08:01:42.071Z,13
2019-05-25T08:06:44.406Z,13
2019-05-25T08:11:46.875Z,13
2019-05-25T08:16:49.357Z,14
2019-05-25T08:21:51.813Z,15
2019-05-25T08:26:54.258Z,14
2019-05-25T08:31:56.711Z,14
2019-05-25T08:36:59.169Z,14
2019-05-25T08:42:01.660Z,13
2019-05-25T08:47:04.090Z,14
2019-05-25T08:52:06.624Z,14
2019-05-25T08:57:09.024Z,15
2019-05-25T09:02:11.468Z,13
2019-05-25T09:07:13.953Z,13
2019-05-25T09:12:16.426Z,14
2019-05-25T09:17:18.968Z,14
2019-05-25T09:22:21.394Z,15
2019-05-25T09:27:23.817Z,14
2019-05-25T09:32:26.296Z,15
2019-05-25T09:37:28.769Z,14
2019-05-25T09:42:31.244Z,14
2019-05-25T09:47:33.885Z,15
2019-05-25T09:52:36.214Z,15
2019-05-25T09:57:41.513Z,15
2019-05-25T10:02:41.213Z,15
2019-05-25T10:07:43.586Z,17
2019-05-25T10:12:45.976Z,15
2019-05-25T10:17:48.469Z,16
2019-05-25T10:22:50.988Z,16
2019-05-25T10:27:53.445Z,16
2019-05-25T10:32:55.807Z,16
2019-05-25T10:37:58.268Z,17
2019-05-25T10:43:00.757Z,17
2019-05-25T10:48:03.256Z,16
2019-05-25T10:53:05.700Z,14
2019-05-25T10:58:08.126Z,15
2019-05-25T11:03:10.579Z,16
2019-05-25T11:08:13.174Z,15
2019-05-25T11:13:15.513Z,14
2019-05-25T11:18:17.958Z,14
2019-05-25T11:23:20.443Z,15
2019-05-25T11:28:22.907Z,15
2019-05-25T11:33:25.349Z,13
2019-05-25T11:38:27.807Z,12
2019-05-25T11:43:30.418Z,13
2019-05-25T11:48:32.740Z,13
2019-05-25T11:53:35.182Z,13
2019-05-25T11:58:46.832Z,13
2019-05-25T12:03:40.110Z,13
2019-05-25T12:08:42.565Z,13
2019-05-25T12:13:45.036Z,14
2019-05-25T12:18:47.509Z,12
2019-05-25T12:23:50.091Z,13
2019-05-25T12:28:52.435Z,12
2019-05-25T12:33:54.884Z,14
2019-05-25T12:38:57.335Z,13
2019-05-25T12:43:59.828Z,12
2019-05-25T12:49:02.262Z,13
2019-05-25T12:54:04.731Z,12
2019-05-25T12:59:07.235Z,12
2019-05-25T13:04:09.656Z,12
2019-05-25T13:09:12.105Z,12
2019-05-25T13:14:15.135Z,12
2019-05-25T13:19:17.012Z,13
2019-05-25T13:24:19.465Z,14
2019-05-25T13:29:21.963Z,14
2019-05-25T13:34:24.526Z,13
2019-05-25T13:39:26.844Z,14
2019-05-25T13:44:29.345Z,14
2019-05-25T13:49:31.844Z,14
2019-05-25T13:54:34.221Z,14
2019-05-25T13:59:36.745Z,13
2019-05-25T14:04:39.150Z,15
2019-05-25T14:09:41.636Z,14
2019-05-25T14:14:44.144Z,13
2019-05-25T14:19:46.569Z,14
2019-05-25T14:24:49.023Z,13
2019-05-25T14:29:51.473Z,13
2019-05-25T14:34:53.891Z,13
2019-05-25T14:39:56.375Z,13
2019-05-25T14:44:58.849Z,12
2019-05-25T14:50:01.311Z,13
2019-05-25T14:55:03.850Z,13
2019-05-25T15:00:06.254Z,13
2019-05-25T15:05:08.665Z,6
2019-05-25T15:10:11.159Z,7
2019-05-25T15:15:13.632Z,9
2019-05-25T15:20:16.217Z,8
2019-05-25T15:25:18.532Z,9
2019-05-25T15:30:21.057Z,9
2019-05-25T15:35:23.393Z,11
2019-05-25T15:40:25.895Z,17
2019-05-25T15:45:28.347Z,19
2019-05-25T15:50:30.799Z,23
2019-05-25T15:55:33.242Z,21
2019-05-25T16:05:38.165Z,18
2019-05-25T16:10:40.616Z,17
2019-05-25T16:15:43.066Z,17
2019-05-25T16:20:45.550Z,22
2019-05-25T16:25:48.068Z,17
2019-05-25T16:30:50.459Z,20
2019-05-25T16:35:52.906Z,19
2019-05-25T16:40:55.387Z,25
2019-05-25T16:45:57.840Z,26
2019-05-25T16:51:00.289Z,22
2019-05-25T17:01:05.202Z,18
2019-05-25T17:06:07.678Z,18
2019-05-25T17:11:10.141Z,15
2019-05-25T17:16:12.667Z,15
2019-05-25T17:21:15.051Z,15
2019-05-25T17:26:17.496Z,16
2019-05-25T17:31:19.996Z,18
2019-05-25T17:36:22.426Z,18
2019-05-25T17:41:24.948Z,21
2019-05-25T17:46:27.348Z,19
2019-05-25T17:51:29.845Z,19
2019-05-25T17:56:32.262Z,18
2019-05-25T18:01:34.744Z,21
2019-05-25T18:06:37.307Z,20
2019-05-25T18:11:39.646Z,20
2019-05-25T18:16:42.079Z,19
2019-05-25T18:21:44.557Z,20
2019-05-25T18:26:47.005Z,21
2019-05-25T18:31:49.478Z,20
2019-05-25T18:36:51.910Z,20
2019-05-25T18:41:54.406Z,19
2019-05-25T18:46:56.834Z,18
2019-05-25T18:51:59.323Z,19
2019-05-25T18:57:04.575Z,18
2019-05-25T19:02:04.249Z,19
2019-05-25T19:07:06.746Z,20
2019-05-25T19:12:09.233Z,19
2019-05-25T19:17:11.583Z,22
2019-05-25T19:22:14.034Z,22
2019-05-25T19:27:16.527Z,23
2019-05-25T19:32:19.039Z,23
2019-05-25T19:37:21.583Z,24
2019-05-25T19:42:23.883Z,23
2019-05-25T19:47:26.319Z,30
2019-05-25T19:52:28.847Z,27
2019-05-25T19:57:31.260Z,24
2019-05-25T20:02:33.716Z,25
2019-05-25T20:07:36.314Z,26
2019-05-25T20:12:38.619Z,31
2019-05-25T20:17:41.080Z,26
2019-05-25T20:22:43.574Z,24
2019-05-25T20:27:45.993Z,24
2019-05-25T20:32:48.461Z,28
2019-05-25T20:37:50.905Z,28
2019-05-25T20:42:53.363Z,24
2019-05-25T20:47:55.829Z,25
2019-05-25T20:52:58.336Z,23
2019-05-25T20:58:00.782Z,23
2019-05-25T21:03:06.265Z,22
2019-05-25T21:08:05.671Z,22
2019-05-25T21:13:08.104Z,22
2019-05-25T21:18:10.602Z,19
2019-05-25T21:23:13.074Z,21
2019-05-25T21:28:15.504Z,20
2019-05-25T21:33:18.005Z,18
2019-05-25T21:38:20.428Z,18
2019-05-25T21:43:23.002Z,20
2019-05-25T21:48:25.358Z,19
2019-05-25T21:53:27.777Z,18
2019-05-25T21:58:30.247Z,16
2019-05-25T22:03:32.705Z,18
2019-05-25T22:08:35.157Z,19
2019-05-25T22:13:37.680Z,18
2019-05-25T22:18:40.128Z,18
2019-05-25T22:23:42.524Z,18
2019-05-25T22:28:45.523Z,18
2019-05-25T22:33:47.432Z,15
2019-05-25T22:38:49.892Z,13
2019-05-25T22:43:52.449Z,13
2019-05-25T22:48:54.803Z,13
2019-05-25T22:53:57.267Z,12
2019-05-25T22:58:59.718Z,12
2019-05-25T23:04:02.211Z,11
2019-05-25T23:09:04.748Z,10
2019-05-25T23:14:09.796Z,11
2019-05-25T23:19:09.560Z,10
2019-05-25T23:24:12.035Z,9
2019-05-25T23:29:14.474Z,11
2019-05-25T23:39:19.403Z,11
2019-05-25T23:44:21.844Z,10
2019-05-25T23:49:24.330Z,10
2019-05-25T23:54:26.834Z,10
2019-05-25T23:59:29.255Z,10
